sensor_id;sensor_type;location;lat;lon;timestamp;P1;durP1;ratioP1;P2;durP2;ratioP2
11504;SDS011;5809;53.262;10.408;2023-08-08T00:01:15;5.30;;;1.80;;
11504;SDS011;5809;53.262;10.408;2023-08-08T00:03:42;3.40;;;1.98;;
11504;SDS011;5809;53.262;10.408;2023-08-08T00:06:09;5.80;;;2.03;;
11504;SDS011;5809;53.262;10.408;2023-08-08T00:08:36;4.88;;;2.08;;
11504;SDS011;5809;53.262;10.408;2023-08-08T00:11:03;3.90;;;1.98;;
11504;SDS011;5809;53.262;10.408;2023-08-08T00:13:31;3.75;;;2.53;;
11504;SDS011;5809;53.262;10.408;2023-08-08T00:15:58;4.07;;;1.98;;
11504;SDS011;5809;53.262;10.408;2023-08-08T00:18:25;3.28;;;1.90;;
11504;SDS011;5809;53.262;10.408;2023-08-08T00:20:52;4.65;;;2.30;;
11504;SDS011;5809;53.262;10.408;2023-08-08T00:23:19;6.40;;;2.30;;
11504;SDS011;5809;53.262;10.408;2023-08-08T00:25:46;5.85;;;2.20;;
11504;SDS011;5809;53.262;10.408;2023-08-08T00:28:16;6.47;;;2.50;;
11504;SDS011;5809;53.262;10.408;2023-08-08T00:30:44;3.22;;;2.05;;
11504;SDS011;5809;53.262;10.408;2023-08-08T00:33:11;5.22;;;2.00;;
11504;SDS011;5809;53.262;10.408;2023-08-08T00:35:38;6.60;;;2.17;;
11504;SDS011;5809;53.262;10.408;2023-08-08T00:38:05;4.75;;;2.03;;
11504;SDS011;5809;53.262;10.408;2023-08-08T00:40:32;4.32;;;2.25;;
11504;SDS011;5809;53.262;10.408;2023-08-08T00:42:59;6.45;;;2.40;;
11504;SDS011;5809;53.262;10.408;2023-08-08T00:45:25;9.05;;;2.35;;
11504;SDS011;5809;53.262;10.408;2023-08-08T00:47:54;4.50;;;2.00;;
11504;SDS011;5809;53.262;10.408;2023-08-08T00:50:21;3.92;;;1.80;;
11504;SDS011;5809;53.262;10.408;2023-08-08T00:52:49;5.97;;;2.42;;
11504;SDS011;5809;53.262;10.408;2023-08-08T00:55:16;5.07;;;2.10;;
11504;SDS011;5809;53.262;10.408;2023-08-08T00:57:43;4.15;;;1.90;;
11504;SDS011;5809;53.262;10.408;2023-08-08T01:00:10;3.40;;;2.25;;
11504;SDS011;5809;53.262;10.408;2023-08-08T01:02:37;5.13;;;2.05;;
11504;SDS011;5809;53.262;10.408;2023-08-08T01:05:06;5.78;;;2.92;;
11504;SDS011;5809;53.262;10.408;2023-08-08T01:07:36;3.92;;;2.20;;
11504;SDS011;5809;53.262;10.408;2023-08-08T01:10:06;6.03;;;2.15;;
11504;SDS011;5809;53.262;10.408;2023-08-08T01:12:37;4.25;;;2.17;;
11504;SDS011;5809;53.262;10.408;2023-08-08T01:15:07;7.10;;;2.33;;
11504;SDS011;5809;53.262;10.408;2023-08-08T01:17:35;7.10;;;2.30;;
11504;SDS011;5809;53.262;10.408;2023-08-08T01:20:03;2.92;;;1.90;;
11504;SDS011;5809;53.262;10.408;2023-08-08T01:22:35;4.82;;;1.80;;
11504;SDS011;5809;53.262;10.408;2023-08-08T01:25:05;4.93;;;2.22;;
11504;SDS011;5809;53.262;10.408;2023-08-08T01:27:34;10.07;;;2.58;;
11504;SDS011;5809;53.262;10.408;2023-08-08T01:30:01;4.70;;;2.33;;
11504;SDS011;5809;53.262;10.408;2023-08-08T01:32:29;5.50;;;2.00;;
11504;SDS011;5809;53.262;10.408;2023-08-08T01:34:56;6.57;;;2.50;;
11504;SDS011;5809;53.262;10.408;2023-08-08T01:37:25;4.78;;;2.22;;
11504;SDS011;5809;53.262;10.408;2023-08-08T01:39:55;4.28;;;2.05;;
11504;SDS011;5809;53.262;10.408;2023-08-08T01:42:25;7.72;;;2.05;;
11504;SDS011;5809;53.262;10.408;2023-08-08T01:44:53;2.75;;;1.80;;
11504;SDS011;5809;53.262;10.408;2023-08-08T01:47:22;6.50;;;1.80;;
11504;SDS011;5809;53.262;10.408;2023-08-08T01:49:49;4.47;;;2.03;;
11504;SDS011;5809;53.262;10.408;2023-08-08T01:52:16;5.07;;;2.40;;
11504;SDS011;5809;53.262;10.408;2023-08-08T01:54:43;3.70;;;2.35;;
11504;SDS011;5809;53.262;10.408;2023-08-08T01:57:09;3.08;;;2.10;;
11504;SDS011;5809;53.262;10.408;2023-08-08T01:59:38;3.45;;;2.10;;
11504;SDS011;5809;53.262;10.408;2023-08-08T02:02:05;5.32;;;2.10;;
11504;SDS011;5809;53.262;10.408;2023-08-08T02:04:32;6.43;;;2.00;;
11504;SDS011;5809;53.262;10.408;2023-08-08T02:06:59;5.13;;;2.22;;
11504;SDS011;5809;53.262;10.408;2023-08-08T02:09:26;5.43;;;2.05;;
11504;SDS011;5809;53.262;10.408;2023-08-08T02:11:53;4.72;;;1.90;;
11504;SDS011;5809;53.262;10.408;2023-08-08T02:14:20;4.63;;;1.75;;
11504;SDS011;5809;53.262;10.408;2023-08-08T02:16:49;2.90;;;1.90;;
11504;SDS011;5809;53.262;10.408;2023-08-08T02:19:15;6.32;;;1.70;;
11504;SDS011;5809;53.262;10.408;2023-08-08T02:21:42;7.00;;;1.90;;
11504;SDS011;5809;53.262;10.408;2023-08-08T02:24:09;5.93;;;1.77;;
11504;SDS011;5809;53.262;10.408;2023-08-08T02:26:36;6.90;;;1.85;;
11504;SDS011;5809;53.262;10.408;2023-08-08T02:29:03;6.55;;;1.90;;
11504;SDS011;5809;53.262;10.408;2023-08-08T02:31:30;3.58;;;1.80;;
11504;SDS011;5809;53.262;10.408;2023-08-08T02:33:59;6.28;;;1.70;;
11504;SDS011;5809;53.262;10.408;2023-08-08T02:36:26;2.83;;;1.70;;
11504;SDS011;5809;53.262;10.408;2023-08-08T02:38:55;4.03;;;1.92;;
11504;SDS011;5809;53.262;10.408;2023-08-08T02:41:23;2.88;;;1.90;;
11504;SDS011;5809;53.262;10.408;2023-08-08T02:43:50;3.25;;;1.92;;
11504;SDS011;5809;53.262;10.408;2023-08-08T02:46:17;4.38;;;2.42;;
11504;SDS011;5809;53.262;10.408;2023-08-08T02:48:44;2.65;;;1.92;;
11504;SDS011;5809;53.262;10.408;2023-08-08T02:51:12;5.93;;;2.30;;
11504;SDS011;5809;53.262;10.408;2023-08-08T02:53:39;7.53;;;2.72;;
11504;SDS011;5809;53.262;10.408;2023-08-08T02:56:06;4.93;;;2.75;;
11504;SDS011;5809;53.262;10.408;2023-08-08T02:58:33;5.35;;;2.58;;
11504;SDS011;5809;53.262;10.408;2023-08-08T03:01:00;6.65;;;2.90;;
11504;SDS011;5809;53.262;10.408;2023-08-08T03:03:27;7.95;;;2.97;;
11504;SDS011;5809;53.262;10.408;2023-08-08T03:05:54;5.15;;;2.70;;
11504;SDS011;5809;53.262;10.408;2023-08-08T03:08:22;5.05;;;2.65;;
11504;SDS011;5809;53.262;10.408;2023-08-08T03:10:49;4.75;;;2.47;;
11504;SDS011;5809;53.262;10.408;2023-08-08T03:13:16;5.93;;;2.70;;
11504;SDS011;5809;53.262;10.408;2023-08-08T03:15:44;6.45;;;2.78;;
11504;SDS011;5809;53.262;10.408;2023-08-08T03:18:11;6.47;;;2.58;;
11504;SDS011;5809;53.262;10.408;2023-08-08T03:20:38;7.22;;;2.33;;
11504;SDS011;5809;53.262;10.408;2023-08-08T03:23:05;4.93;;;2.58;;
11504;SDS011;5809;53.262;10.408;2023-08-08T03:25:34;6.50;;;2.88;;
11504;SDS011;5809;53.262;10.408;2023-08-08T03:28:01;8.75;;;2.58;;
11504;SDS011;5809;53.262;10.408;2023-08-08T03:30:28;5.28;;;2.92;;
11504;SDS011;5809;53.262;10.408;2023-08-08T03:32:55;8.02;;;2.60;;
11504;SDS011;5809;53.262;10.408;2023-08-08T03:35:22;6.20;;;2.70;;
11504;SDS011;5809;53.262;10.408;2023-08-08T03:37:49;6.95;;;3.03;;
11504;SDS011;5809;53.262;10.408;2023-08-08T03:40:17;6.40;;;2.53;;
11504;SDS011;5809;53.262;10.408;2023-08-08T03:42:45;3.65;;;2.30;;
11504;SDS011;5809;53.262;10.408;2023-08-08T03:45:12;7.03;;;2.63;;
11504;SDS011;5809;53.262;10.408;2023-08-08T03:47:39;5.00;;;2.35;;
11504;SDS011;5809;53.262;10.408;2023-08-08T03:50:07;5.40;;;2.40;;
11504;SDS011;5809;53.262;10.408;2023-08-08T03:52:35;4.22;;;2.05;;
11504;SDS011;5809;53.262;10.408;2023-08-08T03:55:03;5.10;;;2.55;;
11504;SDS011;5809;53.262;10.408;2023-08-08T03:57:31;3.80;;;2.33;;
11504;SDS011;5809;53.262;10.408;2023-08-08T03:59:59;5.00;;;2.40;;
11504;SDS011;5809;53.262;10.408;2023-08-08T04:02:26;5.15;;;2.50;;
11504;SDS011;5809;53.262;10.408;2023-08-08T04:04:53;4.10;;;2.35;;
11504;SDS011;5809;53.262;10.408;2023-08-08T04:07:20;5.60;;;2.38;;
11504;SDS011;5809;53.262;10.408;2023-08-08T04:09:48;5.18;;;2.30;;
11504;SDS011;5809;53.262;10.408;2023-08-08T04:12:14;4.88;;;2.40;;
11504;SDS011;5809;53.262;10.408;2023-08-08T04:14:41;5.93;;;2.40;;
11504;SDS011;5809;53.262;10.408;2023-08-08T04:17:10;3.60;;;2.13;;
11504;SDS011;5809;53.262;10.408;2023-08-08T04:19:36;5.18;;;3.03;;
11504;SDS011;5809;53.262;10.408;2023-08-08T04:22:04;6.65;;;2.67;;
11504;SDS011;5809;53.262;10.408;2023-08-08T04:24:31;6.57;;;2.10;;
11504;SDS011;5809;53.262;10.408;2023-08-08T04:26:58;8.10;;;2.10;;
11504;SDS011;5809;53.262;10.408;2023-08-08T04:29:25;3.78;;;2.10;;
11504;SDS011;5809;53.262;10.408;2023-08-08T04:31:52;4.10;;;1.95;;
11504;SDS011;5809;53.262;10.408;2023-08-08T04:34:20;7.57;;;2.50;;
11504;SDS011;5809;53.262;10.408;2023-08-08T04:36:47;4.70;;;2.45;;
11504;SDS011;5809;53.262;10.408;2023-08-08T04:39:14;5.32;;;2.40;;
11504;SDS011;5809;53.262;10.408;2023-08-08T04:41:41;4.50;;;2.50;;
11504;SDS011;5809;53.262;10.408;2023-08-08T04:44:08;7.28;;;2.45;;
11504;SDS011;5809;53.262;10.408;2023-08-08T04:46:35;4.07;;;2.30;;
11504;SDS011;5809;53.262;10.408;2023-08-08T04:49:02;3.85;;;2.35;;
11504;SDS011;5809;53.262;10.408;2023-08-08T04:51:30;8.38;;;2.50;;
11504;SDS011;5809;53.262;10.408;2023-08-08T04:53:57;4.15;;;1.90;;
11504;SDS011;5809;53.262;10.408;2023-08-08T04:56:24;3.80;;;2.17;;
11504;SDS011;5809;53.262;10.408;2023-08-08T04:58:51;4.25;;;2.78;;
11504;SDS011;5809;53.262;10.408;2023-08-08T05:01:18;5.57;;;2.40;;
11504;SDS011;5809;53.262;10.408;2023-08-08T05:03:45;3.05;;;2.38;;
11504;SDS011;5809;53.262;10.408;2023-08-08T05:06:12;5.47;;;2.58;;
11504;SDS011;5809;53.262;10.408;2023-08-08T05:08:41;3.97;;;2.83;;
11504;SDS011;5809;53.262;10.408;2023-08-08T05:11:08;3.92;;;2.60;;
11504;SDS011;5809;53.262;10.408;2023-08-08T05:13:35;6.53;;;2.40;;
11504;SDS011;5809;53.262;10.408;2023-08-08T05:16:02;4.20;;;2.92;;
11504;SDS011;5809;53.262;10.408;2023-08-08T05:18:29;5.03;;;2.70;;
11504;SDS011;5809;53.262;10.408;2023-08-08T05:20:56;3.60;;;2.38;;
11504;SDS011;5809;53.262;10.408;2023-08-08T05:23:23;5.80;;;2.10;;
11504;SDS011;5809;53.262;10.408;2023-08-08T05:25:52;4.40;;;2.00;;
11504;SDS011;5809;53.262;10.408;2023-08-08T05:28:18;3.42;;;2.13;;
11504;SDS011;5809;53.262;10.408;2023-08-08T05:30:46;5.35;;;2.00;;
11504;SDS011;5809;53.262;10.408;2023-08-08T05:33:12;3.53;;;1.65;;
11504;SDS011;5809;53.262;10.408;2023-08-08T05:35:40;2.63;;;1.85;;
11504;SDS011;5809;53.262;10.408;2023-08-08T05:38:06;4.40;;;1.70;;
11504;SDS011;5809;53.262;10.408;2023-08-08T05:40:34;2.92;;;1.80;;
11504;SDS011;5809;53.262;10.408;2023-08-08T05:43:03;1.98;;;1.60;;
11504;SDS011;5809;53.262;10.408;2023-08-08T05:45:30;3.05;;;1.63;;
11504;SDS011;5809;53.262;10.408;2023-08-08T05:47:57;2.22;;;1.67;;
11504;SDS011;5809;53.262;10.408;2023-08-08T05:50:26;3.75;;;1.73;;
11504;SDS011;5809;53.262;10.408;2023-08-08T05:52:53;8.68;;;1.52;;
11504;SDS011;5809;53.262;10.408;2023-08-08T05:55:20;5.13;;;1.83;;
11504;SDS011;5809;53.262;10.408;2023-08-08T05:57:47;3.08;;;1.65;;
11504;SDS011;5809;53.262;10.408;2023-08-08T06:00:16;2.45;;;1.60;;
11504;SDS011;5809;53.262;10.408;2023-08-08T06:02:43;2.28;;;1.70;;
11504;SDS011;5809;53.262;10.408;2023-08-08T06:05:10;3.30;;;2.00;;
11504;SDS011;5809;53.262;10.408;2023-08-08T06:07:38;3.30;;;2.20;;
11504;SDS011;5809;53.262;10.408;2023-08-08T06:10:05;3.88;;;2.20;;
11504;SDS011;5809;53.262;10.408;2023-08-08T06:12:33;4.03;;;2.30;;
11504;SDS011;5809;53.262;10.408;2023-08-08T06:15:00;8.10;;;2.55;;
11504;SDS011;5809;53.262;10.408;2023-08-08T06:17:30;2.60;;;2.40;;
11504;SDS011;5809;53.262;10.408;2023-08-08T06:19:57;4.57;;;2.38;;
11504;SDS011;5809;53.262;10.408;2023-08-08T06:22:24;4.07;;;2.20;;
11504;SDS011;5809;53.262;10.408;2023-08-08T06:24:51;4.70;;;2.35;;
11504;SDS011;5809;53.262;10.408;2023-08-08T06:27:18;5.10;;;2.67;;
11504;SDS011;5809;53.262;10.408;2023-08-08T06:29:45;6.90;;;2.70;;
11504;SDS011;5809;53.262;10.408;2023-08-08T06:32:12;3.50;;;2.63;;
11504;SDS011;5809;53.262;10.408;2023-08-08T06:34:41;3.28;;;2.35;;
11504;SDS011;5809;53.262;10.408;2023-08-08T06:37:08;4.25;;;2.22;;
11504;SDS011;5809;53.262;10.408;2023-08-08T06:39:35;9.75;;;2.40;;
11504;SDS011;5809;53.262;10.408;2023-08-08T06:42:03;4.50;;;2.00;;
11504;SDS011;5809;53.262;10.408;2023-08-08T06:44:32;4.05;;;2.00;;
11504;SDS011;5809;53.262;10.408;2023-08-08T06:46:58;3.85;;;1.90;;
11504;SDS011;5809;53.262;10.408;2023-08-08T06:49:26;3.60;;;1.80;;
11504;SDS011;5809;53.262;10.408;2023-08-08T06:51:54;3.58;;;1.80;;
11504;SDS011;5809;53.262;10.408;2023-08-08T06:54:21;4.95;;;1.58;;
11504;SDS011;5809;53.262;10.408;2023-08-08T06:56:48;3.95;;;1.85;;
11504;SDS011;5809;53.262;10.408;2023-08-08T06:59:15;4.80;;;1.85;;
11504;SDS011;5809;53.262;10.408;2023-08-08T07:01:43;4.20;;;1.77;;
11504;SDS011;5809;53.262;10.408;2023-08-08T07:04:10;3.70;;;1.67;;
11504;SDS011;5809;53.262;10.408;2023-08-08T07:06:38;9.95;;;7.68;;
11504;SDS011;5809;53.262;10.408;2023-08-08T07:09:06;3.65;;;1.98;;
11504;SDS011;5809;53.262;10.408;2023-08-08T07:11:35;4.15;;;1.60;;
11504;SDS011;5809;53.262;10.408;2023-08-08T07:14:03;4.72;;;1.65;;
11504;SDS011;5809;53.262;10.408;2023-08-08T07:16:30;3.58;;;1.52;;
11504;SDS011;5809;53.262;10.408;2023-08-08T07:18:57;3.55;;;1.73;;
11504;SDS011;5809;53.262;10.408;2023-08-08T07:21:24;5.38;;;1.77;;
11504;SDS011;5809;53.262;10.408;2023-08-08T07:23:51;5.63;;;2.00;;
11504;SDS011;5809;53.262;10.408;2023-08-08T07:26:20;3.10;;;2.03;;
11504;SDS011;5809;53.262;10.408;2023-08-08T07:28:48;3.17;;;1.40;;
11504;SDS011;5809;53.262;10.408;2023-08-08T07:31:15;2.88;;;1.58;;
11504;SDS011;5809;53.262;10.408;2023-08-08T07:33:42;3.33;;;1.70;;
11504;SDS011;5809;53.262;10.408;2023-08-08T07:36:09;4.47;;;1.70;;
11504;SDS011;5809;53.262;10.408;2023-08-08T07:38:36;3.13;;;1.52;;
11504;SDS011;5809;53.262;10.408;2023-08-08T07:41:03;5.63;;;1.88;;
11504;SDS011;5809;53.262;10.408;2023-08-08T07:43:31;3.50;;;1.60;;
11504;SDS011;5809;53.262;10.408;2023-08-08T07:45:58;4.40;;;1.60;;
11504;SDS011;5809;53.262;10.408;2023-08-08T07:48:26;3.10;;;1.77;;
11504;SDS011;5809;53.262;10.408;2023-08-08T07:50:53;3.20;;;1.48;;
11504;SDS011;5809;53.262;10.408;2023-08-08T07:53:20;4.38;;;2.00;;
11504;SDS011;5809;53.262;10.408;2023-08-08T07:55:47;4.47;;;1.67;;
11504;SDS011;5809;53.262;10.408;2023-08-08T07:58:14;4.18;;;1.98;;
11504;SDS011;5809;53.262;10.408;2023-08-08T08:00:42;5.75;;;1.52;;
11504;SDS011;5809;53.262;10.408;2023-08-08T08:03:09;2.97;;;1.60;;
11504;SDS011;5809;53.262;10.408;2023-08-08T08:05:36;3.63;;;1.75;;
11504;SDS011;5809;53.262;10.408;2023-08-08T08:08:03;2.17;;;1.30;;
11504;SDS011;5809;53.262;10.408;2023-08-08T08:10:30;5.32;;;1.98;;
11504;SDS011;5809;53.262;10.408;2023-08-08T08:12:57;4.95;;;1.88;;
11504;SDS011;5809;53.262;10.408;2023-08-08T08:15:24;3.25;;;1.63;;
11504;SDS011;5809;53.262;10.408;2023-08-08T08:17:53;3.65;;;1.33;;
11504;SDS011;5809;53.262;10.408;2023-08-08T08:20:20;3.90;;;1.60;;
11504;SDS011;5809;53.262;10.408;2023-08-08T08:22:47;1.98;;;1.38;;
11504;SDS011;5809;53.262;10.408;2023-08-08T08:25:13;5.05;;;1.65;;
11504;SDS011;5809;53.262;10.408;2023-08-08T08:27:41;3.58;;;1.65;;
11504;SDS011;5809;53.262;10.408;2023-08-08T08:30:08;3.75;;;1.40;;
11504;SDS011;5809;53.262;10.408;2023-08-08T08:32:35;4.35;;;1.55;;
11504;SDS011;5809;53.262;10.408;2023-08-08T08:35:04;5.38;;;1.70;;
11504;SDS011;5809;53.262;10.408;2023-08-08T08:37:32;4.20;;;1.52;;
11504;SDS011;5809;53.262;10.408;2023-08-08T08:40:00;8.05;;;2.00;;
11504;SDS011;5809;53.262;10.408;2023-08-08T08:42:29;2.15;;;1.15;;
11504;SDS011;5809;53.262;10.408;2023-08-08T08:44:58;5.78;;;1.92;;
11504;SDS011;5809;53.262;10.408;2023-08-08T08:47:26;2.78;;;1.60;;
11504;SDS011;5809;53.262;10.408;2023-08-08T08:49:56;4.57;;;1.88;;
11504;SDS011;5809;53.262;10.408;2023-08-08T08:52:25;5.60;;;1.65;;
11504;SDS011;5809;53.262;10.408;2023-08-08T08:54:51;5.78;;;1.60;;
11504;SDS011;5809;53.262;10.408;2023-08-08T08:57:19;4.43;;;1.80;;
11504;SDS011;5809;53.262;10.408;2023-08-08T08:59:48;3.38;;;1.63;;
11504;SDS011;5809;53.262;10.408;2023-08-08T09:02:15;3.95;;;2.00;;
11504;SDS011;5809;53.262;10.408;2023-08-08T09:04:43;5.15;;;1.83;;
11504;SDS011;5809;53.262;10.408;2023-08-08T09:07:10;2.83;;;1.40;;
11504;SDS011;5809;53.262;10.408;2023-08-08T09:09:40;3.70;;;1.52;;
11504;SDS011;5809;53.262;10.408;2023-08-08T09:12:09;3.28;;;2.22;;
11504;SDS011;5809;53.262;10.408;2023-08-08T09:14:39;1.55;;;1.23;;
11504;SDS011;5809;53.262;10.408;2023-08-08T09:17:10;1.17;;;0.90;;
11504;SDS011;5809;53.262;10.408;2023-08-08T09:19:38;1.67;;;1.05;;
11504;SDS011;5809;53.262;10.408;2023-08-08T09:22:09;1.58;;;0.90;;
11504;SDS011;5809;53.262;10.408;2023-08-08T09:24:37;4.15;;;1.25;;
11504;SDS011;5809;53.262;10.408;2023-08-08T09:27:06;2.03;;;1.10;;
11504;SDS011;5809;53.262;10.408;2023-08-08T09:29:33;1.13;;;1.00;;
11504;SDS011;5809;53.262;10.408;2023-08-08T09:32:02;2.70;;;1.02;;
11504;SDS011;5809;53.262;10.408;2023-08-08T09:34:29;2.67;;;1.10;;
11504;SDS011;5809;53.262;10.408;2023-08-08T09:36:56;1.48;;;1.00;;
11504;SDS011;5809;53.262;10.408;2023-08-08T09:39:22;1.88;;;1.02;;
11504;SDS011;5809;53.262;10.408;2023-08-08T09:41:51;2.58;;;1.00;;
11504;SDS011;5809;53.262;10.408;2023-08-08T09:44:18;2.47;;;1.10;;
11504;SDS011;5809;53.262;10.408;2023-08-08T09:46:51;2.13;;;0.98;;
11504;SDS011;5809;53.262;10.408;2023-08-08T09:49:18;2.35;;;0.80;;
11504;SDS011;5809;53.262;10.408;2023-08-08T09:51:47;2.20;;;0.90;;
11504;SDS011;5809;53.262;10.408;2023-08-08T09:54:15;1.10;;;1.00;;
11504;SDS011;5809;53.262;10.408;2023-08-08T09:56:42;3.45;;;1.40;;
11504;SDS011;5809;53.262;10.408;2023-08-08T09:59:11;1.75;;;1.00;;
11504;SDS011;5809;53.262;10.408;2023-08-08T10:01:38;3.60;;;1.20;;
11504;SDS011;5809;53.262;10.408;2023-08-08T10:04:07;2.15;;;1.13;;
11504;SDS011;5809;53.262;10.408;2023-08-08T10:06:34;2.28;;;1.30;;
11504;SDS011;5809;53.262;10.408;2023-08-08T10:09:01;3.10;;;1.10;;
11504;SDS011;5809;53.262;10.408;2023-08-08T10:11:29;2.88;;;1.52;;
11504;SDS011;5809;53.262;10.408;2023-08-08T10:13:57;2.45;;;1.30;;
11504;SDS011;5809;53.262;10.408;2023-08-08T10:16:31;2.55;;;1.17;;
11504;SDS011;5809;53.262;10.408;2023-08-08T10:18:59;5.18;;;1.48;;
11504;SDS011;5809;53.262;10.408;2023-08-08T10:21:27;5.45;;;1.55;;
11504;SDS011;5809;53.262;10.408;2023-08-08T10:24:01;4.32;;;1.52;;
11504;SDS011;5809;53.262;10.408;2023-08-08T10:26:29;2.92;;;1.60;;
11504;SDS011;5809;53.262;10.408;2023-08-08T10:28:57;6.38;;;1.40;;
11504;SDS011;5809;53.262;10.408;2023-08-08T10:31:25;4.63;;;1.70;;
11504;SDS011;5809;53.262;10.408;2023-08-08T10:34:01;3.75;;;1.48;;
11504;SDS011;5809;53.262;10.408;2023-08-08T10:39:16;2.35;;;1.60;;
11504;SDS011;5809;53.262;10.408;2023-08-08T10:41:44;2.88;;;1.30;;
11504;SDS011;5809;53.262;10.408;2023-08-08T10:44:12;2.10;;;1.00;;
11504;SDS011;5809;53.262;10.408;2023-08-08T10:46:40;2.85;;;1.13;;
11504;SDS011;5809;53.262;10.408;2023-08-08T10:49:10;2.75;;;1.20;;
11504;SDS011;5809;53.262;10.408;2023-08-08T10:51:41;3.28;;;1.30;;
11504;SDS011;5809;53.262;10.408;2023-08-08T10:54:12;1.75;;;1.15;;
11504;SDS011;5809;53.262;10.408;2023-08-08T10:56:40;1.30;;;1.10;;
11504;SDS011;5809;53.262;10.408;2023-08-08T10:59:13;3.10;;;1.42;;
11504;SDS011;5809;53.262;10.408;2023-08-08T11:01:42;4.63;;;1.70;;
11504;SDS011;5809;53.262;10.408;2023-08-08T11:04:14;4.25;;;1.30;;
11504;SDS011;5809;53.262;10.408;2023-08-08T11:06:43;2.92;;;1.20;;
11504;SDS011;5809;53.262;10.408;2023-08-08T11:09:12;3.28;;;1.40;;
11504;SDS011;5809;53.262;10.408;2023-08-08T11:11:40;1.98;;;1.20;;
11504;SDS011;5809;53.262;10.408;2023-08-08T11:14:08;1.52;;;1.13;;
11504;SDS011;5809;53.262;10.408;2023-08-08T11:16:36;3.00;;;1.30;;
11504;SDS011;5809;53.262;10.408;2023-08-08T11:19:03;2.35;;;1.00;;
11504;SDS011;5809;53.262;10.408;2023-08-08T11:21:34;2.22;;;0.98;;
11504;SDS011;5809;53.262;10.408;2023-08-08T11:24:02;2.58;;;1.20;;
11504;SDS011;5809;53.262;10.408;2023-08-08T11:26:30;1.08;;;0.75;;
11504;SDS011;5809;53.262;10.408;2023-08-08T11:28:58;3.20;;;0.90;;
11504;SDS011;5809;53.262;10.408;2023-08-08T11:31:26;1.08;;;0.98;;
11504;SDS011;5809;53.262;10.408;2023-08-08T11:33:54;3.45;;;1.00;;
11504;SDS011;5809;53.262;10.408;2023-08-08T11:36:22;2.45;;;1.27;;
11504;SDS011;5809;53.262;10.408;2023-08-08T11:38:50;3.33;;;1.17;;
11504;SDS011;5809;53.262;10.408;2023-08-08T11:41:19;2.35;;;1.00;;
11504;SDS011;5809;53.262;10.408;2023-08-08T11:43:48;1.77;;;0.85;;
11504;SDS011;5809;53.262;10.408;2023-08-08T11:46:16;3.63;;;0.98;;
11504;SDS011;5809;53.262;10.408;2023-08-08T11:48:46;3.70;;;0.90;;
11504;SDS011;5809;53.262;10.408;2023-08-08T11:51:13;1.77;;;0.90;;
11504;SDS011;5809;53.262;10.408;2023-08-08T11:53:47;1.00;;;0.90;;
11504;SDS011;5809;53.262;10.408;2023-08-08T11:56:16;1.90;;;0.88;;
11504;SDS011;5809;53.262;10.408;2023-08-08T11:58:44;1.95;;;0.90;;
11504;SDS011;5809;53.262;10.408;2023-08-08T12:01:11;1.17;;;0.80;;
11504;SDS011;5809;53.262;10.408;2023-08-08T12:03:39;1.85;;;0.95;;
11504;SDS011;5809;53.262;10.408;2023-08-08T12:06:11;2.53;;;0.90;;
11504;SDS011;5809;53.262;10.408;2023-08-08T12:08:40;4.13;;;1.10;;
11504;SDS011;5809;53.262;10.408;2023-08-08T12:11:08;1.02;;;0.82;;
11504;SDS011;5809;53.262;10.408;2023-08-08T12:13:36;2.55;;;0.77;;
11504;SDS011;5809;53.262;10.408;2023-08-08T12:16:04;2.25;;;1.10;;
11504;SDS011;5809;53.262;10.408;2023-08-08T12:18:32;1.65;;;0.90;;
11504;SDS011;5809;53.262;10.408;2023-08-08T12:20:59;2.78;;;1.20;;
11504;SDS011;5809;53.262;10.408;2023-08-08T12:23:27;3.17;;;1.10;;
11504;SDS011;5809;53.262;10.408;2023-08-08T12:25:54;3.05;;;1.10;;
11504;SDS011;5809;53.262;10.408;2023-08-08T12:28:21;1.85;;;0.90;;
11504;SDS011;5809;53.262;10.408;2023-08-08T12:30:49;2.83;;;1.20;;
11504;SDS011;5809;53.262;10.408;2023-08-08T12:33:16;1.90;;;0.80;;
11504;SDS011;5809;53.262;10.408;2023-08-08T12:35:42;2.63;;;0.90;;
11504;SDS011;5809;53.262;10.408;2023-08-08T12:38:09;3.42;;;1.38;;
11504;SDS011;5809;53.262;10.408;2023-08-08T12:40:36;2.15;;;0.80;;
11504;SDS011;5809;53.262;10.408;2023-08-08T12:43:03;2.13;;;0.98;;
11504;SDS011;5809;53.262;10.408;2023-08-08T12:45:30;2.83;;;1.00;;
11504;SDS011;5809;53.262;10.408;2023-08-08T12:47:58;1.85;;;1.10;;
11504;SDS011;5809;53.262;10.408;2023-08-08T12:50:25;2.88;;;1.33;;
11504;SDS011;5809;53.262;10.408;2023-08-08T12:52:53;2.15;;;1.08;;
11504;SDS011;5809;53.262;10.408;2023-08-08T12:55:20;2.58;;;1.00;;
11504;SDS011;5809;53.262;10.408;2023-08-08T12:57:47;2.47;;;1.20;;
11504;SDS011;5809;53.262;10.408;2023-08-08T13:00:14;2.17;;;0.80;;
11504;SDS011;5809;53.262;10.408;2023-08-08T13:02:42;1.98;;;0.95;;
11504;SDS011;5809;53.262;10.408;2023-08-08T13:05:11;2.90;;;0.93;;
11504;SDS011;5809;53.262;10.408;2023-08-08T13:07:38;1.27;;;0.85;;
11504;SDS011;5809;53.262;10.408;2023-08-08T13:10:05;1.58;;;0.85;;
11504;SDS011;5809;53.262;10.408;2023-08-08T13:12:32;2.35;;;0.90;;
11504;SDS011;5809;53.262;10.408;2023-08-08T13:15:00;1.55;;;0.80;;
11504;SDS011;5809;53.262;10.408;2023-08-08T13:17:27;2.28;;;1.00;;
11504;SDS011;5809;53.262;10.408;2023-08-08T13:19:54;2.30;;;0.98;;
11504;SDS011;5809;53.262;10.408;2023-08-08T13:22:22;2.72;;;0.95;;
11504;SDS011;5809;53.262;10.408;2023-08-08T13:24:49;3.08;;;1.08;;
11504;SDS011;5809;53.262;10.408;2023-08-08T13:27:16;3.78;;;1.20;;
11504;SDS011;5809;53.262;10.408;2023-08-08T13:29:43;1.40;;;0.90;;
11504;SDS011;5809;53.262;10.408;2023-08-08T13:32:10;1.50;;;1.10;;
11504;SDS011;5809;53.262;10.408;2023-08-08T13:34:36;1.67;;;1.10;;
11504;SDS011;5809;53.262;10.408;2023-08-08T13:37:03;2.88;;;1.33;;
11504;SDS011;5809;53.262;10.408;2023-08-08T13:39:32;3.33;;;1.50;;
11504;SDS011;5809;53.262;10.408;2023-08-08T13:41:59;2.20;;;0.93;;
11504;SDS011;5809;53.262;10.408;2023-08-08T13:44:26;1.35;;;0.93;;
11504;SDS011;5809;53.262;10.408;2023-08-08T13:46:53;2.28;;;1.20;;
11504;SDS011;5809;53.262;10.408;2023-08-08T13:49:20;1.85;;;1.10;;
11504;SDS011;5809;53.262;10.408;2023-08-08T13:51:51;1.92;;;0.90;;
11504;SDS011;5809;53.262;10.408;2023-08-08T13:54:18;1.33;;;0.88;;
11504;SDS011;5809;53.262;10.408;2023-08-08T13:56:47;2.20;;;0.98;;
11504;SDS011;5809;53.262;10.408;2023-08-08T13:59:14;2.35;;;1.00;;
11504;SDS011;5809;53.262;10.408;2023-08-08T14:01:41;3.28;;;1.00;;
11504;SDS011;5809;53.262;10.408;2023-08-08T14:04:08;2.55;;;1.15;;
11504;SDS011;5809;53.262;10.408;2023-08-08T14:06:35;4.00;;;1.02;;
11504;SDS011;5809;53.262;10.408;2023-08-08T14:09:02;2.58;;;0.95;;
11504;SDS011;5809;53.262;10.408;2023-08-08T14:11:30;2.10;;;1.02;;
11504;SDS011;5809;53.262;10.408;2023-08-08T14:13:58;2.45;;;0.93;;
11504;SDS011;5809;53.262;10.408;2023-08-08T14:16:25;3.90;;;1.15;;
11504;SDS011;5809;53.262;10.408;2023-08-08T14:18:52;1.70;;;1.00;;
11504;SDS011;5809;53.262;10.408;2023-08-08T14:21:19;3.42;;;1.50;;
11504;SDS011;5809;53.262;10.408;2023-08-08T14:23:46;2.33;;;1.08;;
11504;SDS011;5809;53.262;10.408;2023-08-08T14:26:13;2.38;;;1.30;;
11504;SDS011;5809;53.262;10.408;2023-08-08T14:28:40;2.38;;;1.27;;
11504;SDS011;5809;53.262;10.408;2023-08-08T14:31:08;1.77;;;1.00;;
11504;SDS011;5809;53.262;10.408;2023-08-08T14:33:35;2.25;;;1.00;;
11504;SDS011;5809;53.262;10.408;2023-08-08T14:36:02;4.15;;;1.25;;
11504;SDS011;5809;53.262;10.408;2023-08-08T14:38:33;6.38;;;1.38;;
11504;SDS011;5809;53.262;10.408;2023-08-08T14:41:01;1.98;;;1.15;;
11504;SDS011;5809;53.262;10.408;2023-08-08T14:43:28;2.83;;;1.50;;
11504;SDS011;5809;53.262;10.408;2023-08-08T14:45:55;1.95;;;1.20;;
11504;SDS011;5809;53.262;10.408;2023-08-08T14:48:24;3.33;;;2.20;;
11504;SDS011;5809;53.262;10.408;2023-08-08T14:50:51;5.63;;;2.75;;
11504;SDS011;5809;53.262;10.408;2023-08-08T14:53:18;2.80;;;1.15;;